Time;durP1;ratioP1;P1;durP2;ratioP2;P2;SDS_P1;SDS_P2;PMS_P1;PMS_P2;Temp;Humidity;BMP_temperature;BMP_pressure;BME280_temperature;BME280_humidity;BME280_pressure;Samples;Min_cycle;Max_cycle;Signal;HPM_P1;HPM_P2
2021/01/16 00:00:26;;;;;;;11.50;2.60;;;-12.70;99.90;;;;;;5073673;28;20730;-69
2021/01/16 00:02:52;;;;;;;5.80;1.90;;;-12.70;99.90;;;;;;5062359;28;20525;-70
2021/01/16 00:05:22;;;;;;;2.40;1.70;;;-12.80;99.90;;;;;;5058854;28;20239;-69
2021/01/16 00:07:59;;;;;;;2.13;1.60;;;-12.80;99.90;;;;;;5054623;28;20554;-69
2021/01/16 00:10:25;;;;;;;2.20;2.00;;;-12.80;99.90;;;;;;5062088;28;20611;-69
2021/01/16 00:12:50;;;;;;;3.33;1.63;;;-12.80;99.90;;;;;;5058719;28;20292;-69
2021/01/16 00:15:16;;;;;;;3.60;1.77;;;-12.80;99.90;;;;;;5061550;28;20205;-70
2021/01/16 00:17:42;;;;;;;2.27;1.63;;;-12.90;99.90;;;;;;5055428;28;20690;-69
2021/01/16 00:20:10;;;;;;;4.50;2.10;;;-12.90;99.90;;;;;;5059406;28;20216;-70
2021/01/16 00:22:45;;;;;;;2.30;1.70;;;-12.90;99.90;;;;;;5062233;28;20224;-70
2021/01/16 00:25:12;;;;;;;3.00;1.83;;;-13.00;99.90;;;;;;5056344;28;20208;-69
2021/01/16 00:27:37;;;;;;;2.57;1.80;;;-13.00;99.90;;;;;;5059326;28;20235;-69
2021/01/16 00:30:06;;;;;;;2.50;1.60;;;-13.00;99.90;;;;;;5055517;28;20664;-69
2021/01/16 00:32:31;;;;;;;2.20;1.73;;;-13.10;99.90;;;;;;5061046;28;20247;-69
2021/01/16 00:34:57;;;;;;;5.17;2.00;;;-13.10;99.90;;;;;;5058072;28;20240;-70
2021/01/16 00:37:22;;;;;;;2.73;1.67;;;-13.10;99.90;;;;;;5058719;28;20552;-70
2021/01/16 00:39:48;;;;;;;2.27;1.70;;;-13.20;99.90;;;;;;5060082;28;20204;-69
2021/01/16 00:42:14;;;;;;;3.67;1.80;;;-13.30;99.90;;;;;;5062080;28;20257;-70
2021/01/16 00:44:40;;;;;;;4.00;1.70;;;-13.30;99.90;;;;;;5062116;28;20756;-70
2021/01/16 00:47:05;;;;;;;3.07;1.53;;;-13.00;99.90;;;;;;5056202;28;20200;-70
2021/01/16 00:49:31;;;;;;;2.77;1.73;;;-12.70;99.90;;;;;;5060239;28;20193;-70
2021/01/16 00:51:56;;;;;;;2.27;1.53;;;-12.60;99.90;;;;;;5060865;28;20250;-70
2021/01/16 00:54:22;;;;;;;3.33;1.80;;;-12.40;99.90;;;;;;5055622;28;20201;-70
2021/01/16 00:56:48;;;;;;;3.10;1.53;;;-12.30;99.90;;;;;;5061310;28;20208;-69
2021/01/16 00:59:13;;;;;;;3.63;1.80;;;-12.30;99.90;;;;;;5058567;28;20208;-69
2021/01/16 01:01:39;;;;;;;3.90;1.90;;;-12.20;99.90;;;;;;5058374;28;20258;-69
2021/01/16 01:04:07;;;;;;;3.10;1.60;;;-12.30;99.90;;;;;;5055203;28;20200;-69
2021/01/16 01:06:33;;;;;;;4.03;1.70;;;-12.30;99.90;;;;;;5053409;28;20212;-69
2021/01/16 01:08:58;;;;;;;2.23;1.90;;;-12.30;99.90;;;;;;5055019;28;20196;-69
2021/01/16 01:11:24;;;;;;;2.63;1.70;;;-12.30;99.90;;;;;;5054656;28;20231;-69
2021/01/16 01:13:50;;;;;;;2.93;1.77;;;-12.30;99.90;;;;;;5056051;28;20204;-69
2021/01/16 01:16:16;;;;;;;2.77;1.70;;;-12.40;99.90;;;;;;5051859;28;20197;-69
2021/01/16 01:18:41;;;;;;;2.93;1.83;;;-12.50;99.90;;;;;;5053547;28;20207;-69
2021/01/16 01:21:07;;;;;;;2.23;1.70;;;-12.60;99.90;;;;;;5069243;28;20200;-69
2021/01/16 01:23:33;;;;;;;3.27;1.80;;;-12.70;99.90;;;;;;5056828;28;20690;-70
2021/01/16 01:25:59;;;;;;;2.30;1.73;;;-12.80;99.90;;;;;;5059498;28;20239;-69
2021/01/16 01:28:24;;;;;;;2.83;1.97;;;-12.80;99.90;;;;;;5058018;28;20247;-69
2021/01/16 01:30:50;;;;;;;2.87;1.90;;;-12.70;99.90;;;;;;5059575;28;20211;-69
2021/01/16 01:33:16;;;;;;;2.63;1.77;;;-12.70;99.90;;;;;;5061415;28;20204;-70
2021/01/16 01:35:42;;;;;;;4.83;1.90;;;-12.70;99.90;;;;;;5061052;28;20278;-70
2021/01/16 01:38:13;;;;;;;3.67;1.97;;;-12.70;99.90;;;;;;5063539;28;20557;-70
2021/01/16 01:40:39;;;;;;;4.03;2.43;;;-12.80;99.90;;;;;;5071091;28;21753;-69
2021/01/16 01:43:05;;;;;;;4.23;2.10;;;-12.80;99.90;;;;;;5058013;28;20205;-71
2021/01/16 01:45:31;;;;;;;3.87;2.20;;;-12.70;99.90;;;;;;5060768;28;20271;-70
2021/01/16 01:47:57;;;;;;;3.53;2.13;;;-12.80;99.90;;;;;;5064495;28;20282;-70
2021/01/16 01:50:22;;;;;;;2.73;1.60;;;-12.80;99.90;;;;;;5060789;28;21097;-69
2021/01/16 01:52:49;;;;;;;2.43;1.53;;;-12.80;99.90;;;;;;5058996;28;20207;-69
2021/01/16 01:55:15;;;;;;;3.20;1.80;;;-12.80;99.90;;;;;;5060007;28;20258;-69
2021/01/16 01:57:47;;;;;;;2.17;1.67;;;-12.70;99.90;;;;;;5064179;28;20201;-69
2021/01/16 02:00:14;;;;;;;2.37;1.90;;;-12.60;99.90;;;;;;5060290;28;20228;-69
2021/01/16 02:02:43;;;;;;;4.20;1.60;;;-12.70;99.90;;;;;;5056858;22;20238;-70
2021/01/16 02:05:09;;;;;;;2.13;1.60;;;-12.70;99.90;;;;;;5063406;28;20204;-69
2021/01/16 02:07:38;;;;;;;3.27;1.90;;;-12.50;99.90;;;;;;5068228;28;20196;-69
2021/01/16 02:10:19;;;;;;;2.30;1.90;;;-12.50;99.90;;;;;;5065660;28;20189;-69
2021/01/16 02:12:45;;;;;;;3.17;1.83;;;-12.60;99.90;;;;;;5064204;28;20803;-69
2021/01/16 02:15:30;;;;;;;3.40;2.10;;;-12.80;99.90;;;;;;5063607;28;20209;-69
2021/01/16 02:18:19;;;;;;;3.13;1.60;;;-12.80;99.90;;;;;;5066937;28;20201;-68
2021/01/16 02:20:46;;;;;;;2.77;1.80;;;-12.90;99.90;;;;;;5051089;28;20227;-69
2021/01/16 02:23:12;;;;;;;3.80;1.60;;;-13.00;99.90;;;;;;5065858;28;20200;-70
2021/01/16 02:25:41;;;;;;;2.37;1.63;;;-12.90;99.90;;;;;;5066728;28;20554;-70
2021/01/16 02:28:16;;;;;;;2.10;1.63;;;-12.90;99.90;;;;;;5066241;28;20220;-69
2021/01/16 02:30:44;;;;;;;3.37;1.73;;;-13.00;99.90;;;;;;5065289;28;20211;-70
2021/01/16 02:33:17;;;;;;;2.60;1.77;;;-13.00;99.90;;;;;;5063153;28;20201;-71
2021/01/16 02:36:11;;;;;;;3.40;1.77;;;-13.00;99.90;;;;;;5065781;28;20196;-70
2021/01/16 02:38:40;;;;;;;2.03;1.50;;;-13.00;99.90;;;;;;5082786;28;20213;-69
2021/01/16 02:41:24;;;;;;;2.50;1.70;;;-13.10;99.90;;;;;;5067920;28;20212;-69
2021/01/16 02:44:01;;;;;;;1.70;1.43;;;-13.20;99.90;;;;;;5066648;28;20212;-70
2021/01/16 02:46:42;;;;;;;2.03;1.53;;;-13.30;99.90;;;;;;5065795;28;20283;-69
2021/01/16 02:49:26;;;;;;;3.47;1.97;;;-13.30;99.90;;;;;;5064697;28;20225;-69
2021/01/16 02:52:06;;;;;;;3.00;1.80;;;-13.20;99.90;;;;;;5062810;28;20742;-69
2021/01/16 02:54:40;;;;;;;1.60;1.47;;;-13.20;99.90;;;;;;5060209;28;20205;-69
2021/01/16 02:57:07;;;;;;;3.47;1.80;;;-13.20;99.90;;;;;;5065065;28;20686;-69
2021/01/16 02:59:37;;;;;;;2.10;1.40;;;-13.20;99.90;;;;;;5062308;28;20198;-69
2021/01/16 03:02:08;;;;;;;2.47;1.60;;;-13.10;99.90;;;;;;5061934;28;20260;-69
2021/01/16 03:04:35;;;;;;;2.23;1.60;;;-13.00;99.90;;;;;;5063411;28;20201;-69
2021/01/16 03:07:02;;;;;;;3.27;1.70;;;-13.00;99.90;;;;;;5064601;28;20269;-69
2021/01/16 03:09:29;;;;;;;2.20;1.83;;;-13.10;99.90;;;;;;5060777;28;20259;-69
2021/01/16 03:11:56;;;;;;;4.80;2.10;;;-13.10;99.90;;;;;;5061833;28;20598;-69
2021/01/16 03:14:24;;;;;;;5.73;2.07;;;-13.20;99.90;;;;;;5059787;28;20212;-69
2021/01/16 03:16:57;;;;;;;4.20;2.37;;;-13.20;99.90;;;;;;5082737;28;20250;-69
2021/01/16 03:19:28;;;;;;;4.13;2.20;;;-13.30;99.90;;;;;;5059642;28;20743;-69
2021/01/16 03:21:53;;;;;;;2.77;1.90;;;-13.40;99.90;;;;;;5060463;28;20228;-70
2021/01/16 03:24:19;;;;;;;4.30;2.27;;;-13.30;99.90;;;;;;5061965;28;20262;-69
2021/01/16 03:26:45;;;;;;;3.20;1.97;;;-13.30;99.90;;;;;;5063109;28;20200;-69
2021/01/16 03:29:11;;;;;;;5.37;2.37;;;-13.30;99.90;;;;;;5056516;28;20205;-68
2021/01/16 03:31:37;;;;;;;3.93;1.70;;;-13.30;99.90;;;;;;5063680;28;20197;-70
2021/01/16 03:34:02;;;;;;;3.67;1.90;;;-13.40;99.90;;;;;;5060259;28;20208;-70
2021/01/16 03:36:28;;;;;;;4.00;1.53;;;-13.40;99.90;;;;;;5063976;28;20220;-70
2021/01/16 03:38:54;;;;;;;3.20;1.50;;;-13.40;99.90;;;;;;5062640;28;20200;-69
2021/01/16 03:41:19;;;;;;;2.27;1.70;;;-13.40;99.90;;;;;;5063053;28;20208;-69
2021/01/16 03:43:45;;;;;;;3.00;1.70;;;-13.30;99.90;;;;;;5061955;28;20250;-69
2021/01/16 03:46:11;;;;;;;2.63;1.73;;;-13.20;99.90;;;;;;5062650;28;20290;-68
2021/01/16 03:48:38;;;;;;;3.13;1.60;;;-13.20;99.90;;;;;;5063604;28;20196;-69
2021/01/16 03:51:04;;;;;;;1.93;1.50;;;-13.20;99.90;;;;;;5063509;28;20193;-70
2021/01/16 03:53:29;;;;;;;2.57;1.70;;;-13.20;99.90;;;;;;5059826;28;21242;-69
2021/01/16 03:55:55;;;;;;;3.70;1.90;;;-13.30;99.90;;;;;;5060023;28;20211;-69
2021/01/16 03:58:20;;;;;;;2.50;1.70;;;-13.30;99.90;;;;;;5062370;28;20208;-69
2021/01/16 04:00:46;;;;;;;2.37;1.57;;;-13.40;99.90;;;;;;5060750;28;20197;-69
2021/01/16 04:03:12;;;;;;;3.23;1.87;;;-13.40;99.90;;;;;;5060432;28;20235;-69
2021/01/16 04:05:37;;;;;;;1.67;1.43;;;-13.50;99.90;;;;;;5061730;28;21444;-68
2021/01/16 04:08:04;;;;;;;2.70;1.63;;;-13.50;99.90;;;;;;5062451;28;20203;-69
2021/01/16 04:10:29;;;;;;;2.57;1.70;;;-13.40;99.90;;;;;;5055826;28;20291;-68
2021/01/16 04:12:55;;;;;;;2.73;1.73;;;-13.40;99.90;;;;;;5078454;28;20349;-69
2021/01/16 04:15:21;;;;;;;3.07;1.83;;;-13.40;99.90;;;;;;5060279;28;20200;-69
2021/01/16 04:17:47;;;;;;;2.70;1.83;;;-13.40;99.90;;;;;;5062417;28;20236;-69
2021/01/16 04:20:12;;;;;;;3.03;1.80;;;-13.50;99.90;;;;;;5062562;28;20247;-69
2021/01/16 04:22:38;;;;;;;3.27;1.83;;;-13.50;99.90;;;;;;5062500;28;20303;-70
2021/01/16 04:25:07;;;;;;;3.80;1.97;;;-13.50;99.90;;;;;;5061166;28;20213;-69
2021/01/16 04:27:33;;;;;;;3.73;1.80;;;-13.50;99.90;;;;;;5059007;28;20279;-68
2021/01/16 04:30:00;;;;;;;2.10;1.50;;;-13.50;99.90;;;;;;5060286;28;20197;-69
2021/01/16 04:32:26;;;;;;;1.90;1.50;;;-13.40;99.90;;;;;;5059500;28;20208;-69
2021/01/16 04:34:53;;;;;;;3.10;1.80;;;-13.40;99.90;;;;;;5063060;28;20200;-69
2021/01/16 04:37:19;;;;;;;3.03;1.43;;;-13.40;99.90;;;;;;5060457;28;20204;-70
2021/01/16 04:39:44;;;;;;;2.47;1.63;;;-13.50;99.90;;;;;;5061605;28;20200;-69
2021/01/16 04:42:13;;;;;;;2.13;1.50;;;-13.60;99.90;;;;;;5059834;28;20201;-70
2021/01/16 04:44:43;;;;;;;2.30;1.50;;;-13.60;99.90;;;;;;5063630;28;20799;-69
2021/01/16 04:47:16;;;;;;;2.77;1.70;;;-13.50;99.90;;;;;;5061888;28;20203;-69
2021/01/16 04:49:42;;;;;;;4.67;1.90;;;-13.40;99.90;;;;;;5080951;28;20192;-69
2021/01/16 04:52:10;;;;;;;3.37;1.73;;;-13.30;99.90;;;;;;5062900;28;20539;-69
2021/01/16 04:54:40;;;;;;;2.33;1.60;;;-13.30;99.90;;;;;;5060327;28;20205;-69
2021/01/16 04:57:06;;;;;;;3.07;1.77;;;-13.30;99.90;;;;;;5063709;28;20246;-70
2021/01/16 04:59:34;;;;;;;2.07;1.43;;;-13.30;99.90;;;;;;5060402;28;20288;-69
2021/01/16 05:02:09;;;;;;;1.93;1.50;;;-13.30;99.90;;;;;;5062074;28;20270;-69
2021/01/16 05:04:39;;;;;;;2.30;1.70;;;-13.30;99.90;;;;;;5059652;28;20212;-69
2021/01/16 05:07:08;;;;;;;2.17;1.50;;;-13.40;99.90;;;;;;5064706;28;20682;-69
2021/01/16 05:09:36;;;;;;;3.80;1.63;;;-13.40;99.90;;;;;;5062204;28;20296;-70
2021/01/16 05:12:23;;;;;;;1.50;1.40;;;-13.50;99.90;;;;;;5060196;28;20203;-68
2021/01/16 05:15:06;;;;;;;1.57;1.43;;;-13.40;99.90;;;;;;5060965;28;20196;-71
2021/01/16 05:17:45;;;;;;;2.60;1.60;;;-13.30;99.90;;;;;;5059556;28;20258;-69
2021/01/16 05:20:12;;;;;;;4.70;1.60;;;-13.20;99.90;;;;;;5063799;28;20193;-69
2021/01/16 05:22:38;;;;;;;2.73;1.73;;;-13.20;99.90;;;;;;5062801;28;20250;-69
2021/01/16 05:25:07;;;;;;;2.70;1.70;;;-13.20;99.90;;;;;;5062487;28;20208;-69
2021/01/16 05:27:37;;;;;;;2.13;1.40;;;-13.00;99.90;;;;;;5062210;28;20193;-68
2021/01/16 05:30:08;;;;;;;3.37;1.70;;;-13.00;99.90;;;;;;5060536;28;20188;-69
2021/01/16 05:32:35;;;;;;;1.60;1.50;;;-13.00;99.90;;;;;;5062160;28;20223;-69
2021/01/16 05:35:21;;;;;;;1.77;1.40;;;-13.00;99.90;;;;;;5061230;28;20197;-69
2021/01/16 05:37:48;;;;;;;1.80;1.30;;;-13.00;99.90;;;;;;5079918;28;20208;-70
2021/01/16 05:40:15;;;;;;;2.60;1.63;;;-13.00;99.90;;;;;;5060226;28;20718;-69
2021/01/16 05:42:41;;;;;;;2.10;1.30;;;-13.00;99.90;;;;;;5059962;28;20687;-69
2021/01/16 05:45:13;;;;;;;1.60;1.50;;;-13.00;99.90;;;;;;5061067;28;20220;-70
2021/01/16 05:47:44;;;;;;;1.77;1.50;;;-13.00;99.90;;;;;;5058981;28;20292;-69
2021/01/16 05:50:10;;;;;;;2.33;1.67;;;-13.00;99.90;;;;;;5059521;28;20197;-69
2021/01/16 05:52:43;;;;;;;1.83;1.47;;;-12.90;99.90;;;;;;5061491;28;20196;-69
2021/01/16 05:55:09;;;;;;;2.43;1.60;;;-12.80;99.90;;;;;;5059965;28;20286;-69
2021/01/16 05:57:39;;;;;;;2.50;1.70;;;-12.80;99.90;;;;;;5060631;28;20677;-69
2021/01/16 06:00:08;;;;;;;2.50;1.47;;;-12.80;99.90;;;;;;5060109;28;20608;-69
2021/01/16 06:02:34;;;;;;;2.20;1.30;;;-12.80;99.90;;;;;;5060067;28;20221;-69
2021/01/16 06:05:00;;;;;;;2.50;1.70;;;-12.80;99.90;;;;;;5065950;28;20210;-69
2021/01/16 06:07:27;;;;;;;2.63;1.70;;;-12.80;99.90;;;;;;5066353;28;20192;-70
2021/01/16 06:09:55;;;;;;;1.90;1.47;;;-12.80;99.90;;;;;;5066593;28;20250;-70
2021/01/16 06:12:22;;;;;;;2.07;1.53;;;-12.80;99.90;;;;;;5068767;28;20291;-69
2021/01/16 06:14:48;;;;;;;3.23;1.57;;;-12.80;99.90;;;;;;5073371;28;20657;-69
2021/01/16 06:17:16;;;;;;;1.83;1.60;;;-12.80;99.90;;;;;;5069724;28;20197;-68
2021/01/16 06:19:47;;;;;;;1.60;1.47;;;-12.90;99.90;;;;;;5068534;28;20202;-69
2021/01/16 06:22:15;;;;;;;1.73;1.40;;;-12.90;99.90;;;;;;5071815;28;20216;-69
2021/01/16 06:24:46;;;;;;;2.87;1.70;;;-13.00;99.90;;;;;;5076117;28;20690;-70
2021/01/16 06:27:22;;;;;;;2.30;1.50;;;-13.00;99.90;;;;;;5073151;28;20301;-70
2021/01/16 06:29:56;;;;;;;1.53;1.40;;;-13.00;99.90;;;;;;5065193;28;21594;-69
2021/01/16 06:32:23;;;;;;;1.87;1.33;;;-13.00;99.90;;;;;;5066029;28;20199;-69
2021/01/16 06:35:05;;;;;;;2.70;1.50;;;-13.00;99.90;;;;;;5061905;28;20197;-69
2021/01/16 06:37:32;;;;;;;1.60;1.30;;;-12.90;99.90;;;;;;5080985;28;20208;-70
2021/01/16 06:39:57;;;;;;;1.43;1.30;;;-12.90;99.90;;;;;;5068663;28;20256;-69
2021/01/16 06:42:27;;;;;;;3.53;2.03;;;-12.90;99.90;;;;;;5063231;28;20637;-70
2021/01/16 06:45:10;;;;;;;2.87;1.80;;;-13.00;99.90;;;;;;5065677;28;20250;-69
2021/01/16 06:47:38;;;;;;;5.83;2.70;;;-13.10;99.90;;;;;;5063753;28;20208;-69
2021/01/16 06:50:08;;;;;;;5.83;3.00;;;-13.20;99.90;;;;;;5065238;28;20190;-69
2021/01/16 06:52:38;;;;;;;14.67;6.20;;;-13.30;99.90;;;;;;5063794;28;20232;-68
2021/01/16 06:55:06;;;;;;;12.97;5.00;;;-13.30;99.90;;;;;;5062616;28;20266;-69
2021/01/16 06:57:35;;;;;;;12.67;5.37;;;-13.30;99.90;;;;;;5066927;28;20197;-70
2021/01/16 07:00:08;;;;;;;6.70;3.10;;;-13.30;99.90;;;;;;5062802;28;20243;-69
2021/01/16 07:02:39;;;;;;;7.50;3.20;;;-13.40;99.90;;;;;;5063924;28;20625;-69
2021/01/16 07:05:21;;;;;;;12.43;5.53;;;-13.30;99.90;;;;;;5069382;28;20576;-70
2021/01/16 07:07:51;;;;;;;5.80;3.40;;;-13.30;99.90;;;;;;5060240;28;20197;-70
2021/01/16 07:10:22;;;;;;;3.80;2.30;;;-13.30;99.90;;;;;;5074018;28;20205;-70
2021/01/16 07:12:54;;;;;;;2.20;1.57;;;-13.20;99.90;;;;;;5073267;28;20193;-69
2021/01/16 07:15:21;;;;;;;3.63;1.63;;;-13.10;99.90;;;;;;5060618;28;20197;-70
2021/01/16 07:17:48;;;;;;;1.60;1.50;;;-13.00;99.90;;;;;;5066135;28;20402;-69
2021/01/16 07:20:21;;;;;;;2.03;1.50;;;-13.00;99.90;;;;;;5060793;28;20564;-69
2021/01/16 07:22:51;;;;;;;2.63;1.67;;;-12.90;99.90;;;;;;5056943;28;20671;-69
2021/01/16 07:25:19;;;;;;;2.33;1.60;;;-12.90;99.90;;;;;;5060587;28;20278;-69
2021/01/16 07:27:47;;;;;;;2.37;1.70;;;-12.90;99.90;;;;;;5078082;28;20686;-68
2021/01/16 07:30:17;;;;;;;3.50;1.77;;;-12.80;99.90;;;;;;5060032;28;20193;-68
2021/01/16 07:32:49;;;;;;;2.97;1.80;;;-12.90;99.90;;;;;;5057805;28;20193;-68
2021/01/16 07:35:22;;;;;;;2.97;1.53;;;-13.00;99.90;;;;;;5059111;28;20315;-68
2021/01/16 07:37:51;;;;;;;2.27;1.63;;;-13.00;99.90;;;;;;5062343;28;20204;-69
2021/01/16 07:40:25;;;;;;;2.77;1.60;;;-13.00;99.90;;;;;;5060185;28;20207;-68
2021/01/16 07:42:54;;;;;;;2.80;1.87;;;-13.00;99.90;;;;;;5061872;28;20207;-69
2021/01/16 07:45:28;;;;;;;2.40;1.60;;;-13.00;99.90;;;;;;5059714;28;20212;-69
2021/01/16 07:47:56;;;;;;;5.30;2.23;;;-13.00;99.90;;;;;;5078453;28;20192;-69
2021/01/16 07:50:23;;;;;;;2.67;1.70;;;-13.00;99.90;;;;;;5059978;28;20250;-68
2021/01/16 07:53:05;;;;;;;2.50;2.07;;;-12.90;99.90;;;;;;5058989;28;20196;-68
2021/01/16 07:55:37;;;;;;;3.07;2.10;;;-12.80;99.90;;;;;;5078033;28;20261;-69
2021/01/16 07:58:26;;;;;;;3.70;2.03;;;-12.80;99.90;;;;;;5061086;28;20212;-69
2021/01/16 08:01:24;;;;;;;2.47;1.90;;;-12.70;99.90;;;;;;5054479;28;21111;-70
2021/01/16 08:04:19;;;;;;;3.83;2.17;;;-12.70;99.90;;;;;;4993122;28;20248;-70
2021/01/16 08:07:04;;;;;;;4.97;2.10;;;-12.60;99.90;;;;;;5058628;28;20274;-68
2021/01/16 08:09:42;;;;;;;3.27;2.10;;;-12.60;99.90;;;;;;5076476;28;20290;-68
2021/01/16 08:12:11;;;;;;;3.50;2.43;;;-12.60;99.90;;;;;;5057477;28;20302;-70
2021/01/16 08:14:40;;;;;;;3.50;2.47;;;-12.50;99.90;;;;;;5057681;28;20197;-68
2021/01/16 08:17:18;;;;;;;3.90;2.30;;;-12.60;99.90;;;;;;5058310;28;20730;-68
2021/01/16 08:19:46;;;;;;;5.03;2.50;;;-12.50;99.90;;;;;;5054066;28;20189;-69
2021/01/16 08:22:17;;;;;;;2.80;1.90;;;-12.50;99.90;;;;;;5056241;28;20200;-68
2021/01/16 08:25:04;;;;;;;3.80;2.00;;;-12.50;99.90;;;;;;5057720;28;20201;-69
2021/01/16 08:27:40;;;;;;;2.80;2.07;;;-12.40;99.90;;;;;;5056003;28;20200;-68
2021/01/16 08:30:11;;;;;;;4.10;1.93;;;-12.40;99.90;;;;;;5056344;28;20215;-69
2021/01/16 08:32:57;;;;;;;2.80;1.73;;;-12.40;99.90;;;;;;5056702;28;20514;-69
2021/01/16 08:35:32;;;;;;;1.60;1.50;;;-12.30;99.90;;;;;;5056835;28;20193;-69
2021/01/16 08:38:31;;;;;;;2.60;1.57;;;-12.30;99.90;;;;;;5061348;28;20211;-69
2021/01/16 08:41:03;;;;;;;2.13;1.53;;;-12.30;99.90;;;;;;5022663;28;20315;-69
2021/01/16 08:43:43;;;;;;;2.13;1.50;;;-12.30;99.90;;;;;;5060665;28;20689;-68
2021/01/16 08:46:33;;;;;;;2.20;1.60;;;-12.40;99.90;;;;;;5059600;28;20212;-69
2021/01/16 08:49:06;;;;;;;2.50;1.50;;;-12.30;99.90;;;;;;5060352;28;20196;-69
2021/01/16 08:51:53;;;;;;;2.70;1.60;;;-12.30;99.90;;;;;;5057180;28;20193;-68
2021/01/16 08:54:19;;;;;;;2.47;1.60;;;-12.20;99.90;;;;;;5060376;28;20201;-68
2021/01/16 08:56:47;;;;;;;2.87;1.80;;;-12.30;99.90;;;;;;5059485;28;20188;-68
2021/01/16 08:59:30;;;;;;;2.83;1.90;;;-12.30;99.90;;;;;;5056111;28;20216;-69
2021/01/16 09:02:25;;;;;;;6.87;3.93;;;-12.40;99.90;;;;;;5052123;28;20656;-68
2021/01/16 09:04:51;;;;;;;8.00;4.53;;;-12.40;99.90;;;;;;5053281;28;20586;-69
2021/01/16 09:07:24;;;;;;;8.43;4.53;;;-12.30;99.90;;;;;;5056137;28;20197;-68
2021/01/16 09:10:02;;;;;;;6.83;4.03;;;-12.20;99.90;;;;;;5055251;28;20561;-69
2021/01/16 09:12:39;;;;;;;6.80;3.83;;;-12.10;99.90;;;;;;5056747;28;20622;-69
2021/01/16 09:15:22;;;;;;;11.70;3.73;;;-12.10;99.90;;;;;;5050029;28;20690;-68
2021/01/16 09:18:10;;;;;;;7.63;3.83;;;-12.10;99.90;;;;;;5050578;28;20551;-68
2021/01/16 09:21:05;;;;;;;6.07;3.27;;;-12.10;99.90;;;;;;5075568;28;20739;-68
2021/01/16 09:23:36;;;;;;;5.17;2.83;;;-12.10;99.90;;;;;;5056945;28;20258;-68
2021/01/16 09:26:04;;;;;;;3.77;2.50;;;-12.00;99.90;;;;;;5055168;28;20212;-68
2021/01/16 09:28:56;;;;;;;4.17;2.63;;;-11.90;99.90;;;;;;5057452;28;20199;-69
2021/01/16 09:31:32;;;;;;;5.53;2.87;;;-11.90;99.90;;;;;;5049993;28;20228;-68
2021/01/16 09:34:07;;;;;;;9.40;4.70;;;-11.90;99.90;;;;;;5070322;28;20197;-69
2021/01/16 09:36:40;;;;;;;8.40;4.40;;;-11.80;99.90;;;;;;5072992;28;20692;-68
2021/01/16 09:39:14;;;;;;;7.83;3.87;;;-11.80;99.90;;;;;;5076579;28;20204;-68
2021/01/16 09:41:42;;;;;;;8.30;3.87;;;-11.70;99.90;;;;;;5054701;28;20678;-70
2021/01/16 09:44:08;;;;;;;7.53;3.53;;;-11.70;99.90;;;;;;5050425;28;20567;-71
2021/01/16 09:46:42;;;;;;;8.80;3.83;;;-11.60;99.90;;;;;;5076282;28;20197;-69
2021/01/16 09:49:11;;;;;;;8.27;4.07;;;-11.60;99.90;;;;;;5062374;28;20201;-69
2021/01/16 09:51:38;;;;;;;9.63;4.07;;;-11.60;99.90;;;;;;5063844;28;20220;-70
2021/01/16 09:54:30;;;;;;;5.60;3.17;;;-11.60;99.90;;;;;;5063100;28;20645;-70
2021/01/16 09:56:56;;;;;;;6.67;3.00;;;-11.50;99.90;;;;;;5055727;28;20270;-70
2021/01/16 09:59:24;;;;;;;7.60;3.10;;;-11.30;99.90;;;;;;5060176;28;20292;-70
2021/01/16 10:02:13;;;;;;;9.73;4.00;;;-11.30;99.90;;;;;;5060625;28;20196;-70
2021/01/16 10:04:44;;;;;;;16.80;5.40;;;-11.20;99.90;;;;;;5060440;28;20242;-70
2021/01/16 10:07:14;;;;;;;20.70;4.67;;;-11.20;99.90;;;;;;5060855;28;20242;-70
2021/01/16 10:09:48;;;;;;;4.80;2.87;;;-11.10;99.90;;;;;;5061281;28;20576;-70
2021/01/16 10:12:32;;;;;;;7.10;3.40;;;-10.90;99.90;;;;;;5058737;28;20189;-69
2021/01/16 10:15:03;;;;;;;10.87;5.23;;;-10.70;99.90;;;;;;5075991;28;20196;-69
2021/01/16 10:17:33;;;;;;;10.37;4.37;;;-10.50;99.90;;;;;;5062685;28;20206;-70
2021/01/16 10:20:08;;;;;;;6.50;3.60;;;-10.40;99.90;;;;;;5060480;28;20205;-70
2021/01/16 10:22:34;;;;;;;11.53;5.10;;;-10.30;99.90;;;;;;5057489;28;20678;-70
2021/01/16 10:25:01;;;;;;;12.40;4.93;;;-10.20;99.90;;;;;;5059751;28;20197;-69
2021/01/16 10:27:49;;;;;;;9.50;4.43;;;-10.20;99.90;;;;;;5059969;28;20197;-69
2021/01/16 10:30:23;;;;;;;12.93;4.00;;;-10.20;99.90;;;;;;5057890;28;21162;-70
2021/01/16 10:32:50;;;;;;;9.43;4.40;;;-10.20;99.90;;;;;;5057034;28;20703;-70
2021/01/16 10:35:25;;;;;;;8.60;3.80;;;-10.10;99.90;;;;;;5060641;28;20379;-70
2021/01/16 10:37:53;;;;;;;6.57;3.43;;;-10.10;99.90;;;;;;5068482;28;20294;-70
2021/01/16 10:40:20;;;;;;;5.23;2.90;;;-10.20;99.90;;;;;;5061434;28;20749;-69
2021/01/16 10:42:54;;;;;;;2.07;1.50;;;-10.10;99.90;;;;;;5060936;28;20219;-71
2021/01/16 10:45:22;;;;;;;2.83;1.70;;;-10.10;99.90;;;;;;5061111;28;20211;-69
2021/01/16 10:47:49;;;;;;;1.93;1.70;;;-9.80;99.90;;;;;;5062575;28;20219;-70
2021/01/16 10:50:27;;;;;;;2.87;1.73;;;-9.70;99.90;;;;;;5064536;28;20195;-69
2021/01/16 10:53:06;;;;;;;2.23;1.60;;;-9.70;99.90;;;;;;5066588;28;20192;-69
2021/01/16 10:55:55;;;;;;;7.20;2.73;;;-9.60;99.90;;;;;;5064524;28;20933;-70
2021/01/16 10:58:26;;;;;;;3.93;2.60;;;-9.50;99.90;;;;;;5079945;28;20204;-70
2021/01/16 11:00:56;;;;;;;6.33;3.20;;;-9.50;99.90;;;;;;5062264;28;20386;-70
2021/01/16 11:03:31;;;;;;;6.03;2.90;;;-9.50;99.90;;;;;;5059369;28;20601;-69
2021/01/16 11:06:04;;;;;;;4.87;2.97;;;-9.50;99.90;;;;;;5056140;28;20208;-70
2021/01/16 11:08:32;;;;;;;4.13;2.60;;;-9.50;99.90;;;;;;5055653;28;21332;-69
2021/01/16 11:10:59;;;;;;;3.53;2.20;;;-9.50;99.90;;;;;;5070160;28;20221;-69
2021/01/16 11:13:29;;;;;;;5.13;2.40;;;-9.50;99.90;;;;;;5058030;28;20334;-71
2021/01/16 11:16:19;;;;;;;4.03;2.50;;;-9.50;99.90;;;;;;5055085;28;20344;-70
2021/01/16 11:18:47;;;;;;;3.80;2.27;;;-9.50;99.90;;;;;;5063105;28;20539;-71
2021/01/16 11:21:35;;;;;;;3.33;2.30;;;-9.50;99.90;;;;;;5062771;28;20249;-69
2021/01/16 11:24:29;;;;;;;5.03;2.63;;;-9.50;99.90;;;;;;5053798;28;20197;-70
2021/01/16 11:26:58;;;;;;;4.17;2.57;;;-9.60;99.90;;;;;;5079213;28;20219;-70
2021/01/16 11:29:39;;;;;;;4.43;3.10;;;-9.60;99.90;;;;;;5060108;28;20192;-70
2021/01/16 11:32:16;;;;;;;8.87;2.80;;;-9.70;99.90;;;;;;5045252;28;20687;-72
2021/01/16 11:35:03;;;;;;;6.43;2.73;;;-9.70;99.90;;;;;;5064529;28;20250;-71
2021/01/16 11:37:55;;;;;;;8.53;3.43;;;-9.70;99.90;;;;;;5080892;28;20303;-72
2021/01/16 11:40:32;;;;;;;5.90;3.20;;;-9.60;99.90;;;;;;5056882;28;20238;-72
2021/01/16 11:43:07;;;;;;;8.97;3.97;;;-9.60;99.90;;;;;;5061520;28;20199;-71
2021/01/16 11:45:33;;;;;;;8.03;3.90;;;-9.50;99.90;;;;;;5060888;28;20277;-71
2021/01/16 11:48:01;;;;;;;7.57;3.63;;;-9.40;99.90;;;;;;5065894;28;20226;-72
2021/01/16 11:50:36;;;;;;;6.30;3.60;;;-9.40;99.90;;;;;;5062589;28;20208;-70
2021/01/16 11:53:12;;;;;;;7.00;3.80;;;-9.40;99.90;;;;;;5061638;28;20204;-71
2021/01/16 11:55:38;;;;;;;7.47;3.40;;;-9.40;99.90;;;;;;5063298;28;20227;-71
2021/01/16 11:58:04;;;;;;;6.70;3.50;;;-9.40;99.90;;;;;;5061616;28;20212;-70
2021/01/16 12:00:31;;;;;;;7.07;3.23;;;-9.50;99.90;;;;;;5059363;28;20204;-71
2021/01/16 12:02:58;;;;;;;7.57;3.70;;;-9.40;99.90;;;;;;5062968;28;20226;-71
2021/01/16 12:05:25;;;;;;;4.87;3.10;;;-9.40;99.90;;;;;;5061639;28;20233;-71
2021/01/16 12:07:55;;;;;;;5.60;3.20;;;-9.20;99.90;;;;;;5056172;28;20229;-71
2021/01/16 12:10:23;;;;;;;5.10;2.63;;;-9.20;99.90;;;;;;5057524;28;20559;-71
2021/01/16 12:12:49;;;;;;;2.57;1.80;;;-9.10;99.90;;;;;;5056348;28;20250;-71
2021/01/16 12:15:25;;;;;;;1.60;1.47;;;-9.10;99.90;;;;;;5060296;28;20205;-70
2021/01/16 12:17:52;;;;;;;3.13;1.63;;;-9.00;99.90;;;;;;5059204;28;20204;-71
2021/01/16 12:20:21;;;;;;;1.73;1.60;;;-9.00;99.90;;;;;;5055111;28;20206;-71
2021/01/16 12:22:50;;;;;;;2.07;1.50;;;-8.90;99.90;;;;;;5053705;28;20530;-70
2021/01/16 12:25:17;;;;;;;2.80;1.70;;;-8.80;99.90;;;;;;5064606;28;20205;-70
2021/01/16 12:27:53;;;;;;;2.40;1.80;;;-8.70;99.90;;;;;;5058356;28;20344;-71
2021/01/16 12:30:21;;;;;;;2.90;1.90;;;-8.50;99.90;;;;;;5078988;28;20192;-70
2021/01/16 12:32:48;;;;;;;2.50;1.70;;;-8.50;99.90;;;;;;5079799;28;20189;-71
2021/01/16 12:35:15;;;;;;;1.83;1.40;;;-8.50;99.90;;;;;;5064053;28;20211;-71
2021/01/16 12:37:42;;;;;;;2.80;1.60;;;-8.70;99.90;;;;;;5059915;28;20242;-71
2021/01/16 12:40:12;;;;;;;3.73;1.80;;;-8.70;99.90;;;;;;5056191;28;20200;-71
2021/01/16 12:42:38;;;;;;;1.83;1.30;;;-8.80;99.90;;;;;;5062668;28;20199;-71
2021/01/16 12:45:16;;;;;;;1.90;1.40;;;-8.90;99.90;;;;;;5058206;28;20599;-71
2021/01/16 12:47:44;;;;;;;2.50;1.50;;;-9.00;99.90;;;;;;5056146;28;20555;-71
2021/01/16 12:50:11;;;;;;;1.83;1.47;;;-9.10;99.90;;;;;;5061945;28;20216;-72
2021/01/16 12:52:43;;;;;;;2.27;1.70;;;-9.10;99.90;;;;;;5067116;28;20246;-71
2021/01/16 12:55:11;;;;;;;2.60;1.80;;;-9.20;99.90;;;;;;5060334;28;20197;-71
2021/01/16 12:57:38;;;;;;;2.77;1.80;;;-9.20;99.90;;;;;;5056079;28;20213;-71